Time;durP1;ratioP1;P1;durP2;ratioP2;P2;SDS_P1;SDS_P2;PMS_P1;PMS_P2;Temp;Humidity;BMP_temperature;BMP_pressure;BME280_temperature;BME280_humidity;BME280_pressure;Samples;Min_cycle;Max_cycle;Signal;HPM_P1;HPM_P2
2021/06/13 00:00:38;;;;;;;10.57;9.55;;;;;;;;;;5117791;27;20023;-72
2021/06/13 00:03:04;;;;;;;9.75;8.73;;;;;;;;;;5116551;27;20469;-72
2021/06/13 00:05:30;;;;;;;13.05;9.15;;;;;;;;;;5118186;27;20154;-69
2021/06/13 00:07:56;;;;;;;11.13;9.85;;;;;;;;;;5117467;27;20043;-70
2021/06/13 00:10:22;;;;;;;11.18;9.70;;;;;;;;;;5114815;27;20030;-70
2021/06/13 00:12:48;;;;;;;11.68;9.38;;;;;;;;;;5098848;27;20028;-71
2021/06/13 00:15:17;;;;;;;12.55;9.13;;;;;;;;;;5119049;27;20023;-71
2021/06/13 00:17:43;;;;;;;10.00;8.95;;;;;;;;;;5118906;27;20019;-72
2021/06/13 00:20:11;;;;;;;10.60;9.50;;;;;;;;;;5116810;27;20114;-72
2021/06/13 00:22:37;;;;;;;11.15;9.82;;;;;;;;;;5117789;27;20015;-72
2021/06/13 00:25:04;;;;;;;13.25;9.27;;;;;;;;;;5120516;27;20031;-72
2021/06/13 00:27:30;;;;;;;10.68;9.52;;;;;;;;;;5117181;27;20075;-71
2021/06/13 00:29:56;;;;;;;11.15;9.80;;;;;;;;;;5120084;27;20033;-71
2021/06/13 00:32:22;;;;;;;9.60;8.60;;;;;;;;;;5113530;27;20073;-71
2021/06/13 00:34:48;;;;;;;11.32;9.00;;;;;;;;;;5117894;28;20440;-70
2021/06/13 00:37:14;;;;;;;10.73;8.70;;;;;;;;;;5118057;28;20027;-70
2021/06/13 00:39:40;;;;;;;9.65;8.65;;;;;;;;;;5114563;28;20035;-72
2021/06/13 00:42:06;;;;;;;11.13;8.02;;;;;;;;;;5115190;28;20032;-71
2021/06/13 00:44:32;;;;;;;10.10;8.80;;;;;;;;;;5115776;28;20027;-70
2021/06/13 00:46:58;;;;;;;11.02;8.80;;;;;;;;;;5117452;28;20043;-71
2021/06/13 00:49:24;;;;;;;12.48;9.52;;;;;;;;;;5116186;28;20031;-72
2021/06/13 00:51:51;;;;;;;9.88;8.88;;;;;;;;;;5118000;28;20039;-71
2021/06/13 00:54:17;;;;;;;12.32;8.70;;;;;;;;;;5117497;28;20105;-72
2021/06/13 00:56:43;;;;;;;10.85;8.45;;;;;;;;;;5118523;28;20459;-71
2021/06/13 00:59:09;;;;;;;10.50;9.18;;;;;;;;;;5116931;28;20030;-72
2021/06/13 01:01:35;;;;;;;8.68;7.88;;;;;;;;;;5118180;28;20110;-71
2021/06/13 01:04:01;;;;;;;9.95;8.80;;;;;;;;;;5116448;28;20133;-72
2021/06/13 01:06:47;;;;;;;10.00;9.00;;;;;;;;;;5118856;28;20098;-71
2021/06/13 01:09:15;;;;;;;9.95;8.82;;;;;;;;;;5117131;28;20355;-72
2021/06/13 01:11:47;;;;;;;10.13;9.13;;;;;;;;;;5121393;28;20048;-72
2021/06/13 01:14:15;;;;;;;10.30;9.10;;;;;;;;;;5115881;28;20019;-72
2021/06/13 01:16:53;;;;;;;9.35;8.00;;;;;;;;;;5118898;27;20114;-72
2021/06/13 01:19:22;;;;;;;11.40;8.45;;;;;;;;;;5119667;27;20016;-71
2021/06/13 01:22:00;;;;;;;10.20;7.45;;;;;;;;;;5120109;27;20397;-72
2021/06/13 01:24:47;;;;;;;10.02;7.47;;;;;;;;;;5121543;27;20023;-72
2021/06/13 01:27:32;;;;;;;8.57;6.95;;;;;;;;;;5121583;27;20047;-72
2021/06/13 01:29:58;;;;;;;7.60;6.30;;;;;;;;;;5105969;27;20023;-72
2021/06/13 01:32:25;;;;;;;6.63;6.03;;;;;;;;;;5120965;27;20182;-71
2021/06/13 01:34:55;;;;;;;8.13;5.72;;;;;;;;;;5118577;27;20047;-71
2021/06/13 01:37:22;;;;;;;6.63;5.93;;;;;;;;;;5120334;27;20106;-72
2021/06/13 01:39:52;;;;;;;6.93;5.78;;;;;;;;;;5122972;27;20030;-71
2021/06/13 01:42:19;;;;;;;6.45;5.85;;;;;;;;;;5119605;27;20035;-72
2021/06/13 01:44:45;;;;;;;6.72;5.60;;;;;;;;;;5121194;27;20370;-71
2021/06/13 01:47:12;;;;;;;6.88;5.70;;;;;;;;;;5119471;27;20043;-72
2021/06/13 01:49:40;;;;;;;8.30;5.90;;;;;;;;;;5119594;27;20138;-71
2021/06/13 01:52:07;;;;;;;11.57;6.50;;;;;;;;;;5120691;27;20454;-71
2021/06/13 01:54:33;;;;;;;;;;;;;;;;;;5120162;27;20106;-71
2021/06/13 01:56:59;;;;;;;7.78;5.60;;;;;;;;;;5118005;27;20022;-71
2021/06/13 01:59:26;;;;;;;7.80;5.82;;;;;;;;;;5118511;27;20028;-71
2021/06/13 02:01:53;;;;;;;6.13;5.47;;;;;;;;;;5119268;27;20102;-71
2021/06/13 02:04:21;;;;;;;8.95;5.88;;;;;;;;;;5104059;27;20201;-71
2021/06/13 02:06:49;;;;;;;7.63;5.18;;;;;;;;;;5117741;27;20031;-71
2021/06/13 02:09:18;;;;;;;6.03;5.30;;;;;;;;;;5120478;27;20492;-71
2021/06/13 02:11:46;;;;;;;7.65;5.40;;;;;;;;;;5122692;27;20051;-72
2021/06/13 02:14:12;;;;;;;7.65;5.50;;;;;;;;;;5119883;27;20082;-71
2021/06/13 02:16:42;;;;;;;6.47;5.33;;;;;;;;;;5101311;27;20034;-71
2021/06/13 02:19:09;;;;;;;5.25;4.75;;;;;;;;;;5099263;27;20301;-71
2021/06/13 02:21:35;;;;;;;7.10;5.43;;;;;;;;;;5119717;27;20071;-71
2021/06/13 02:24:01;;;;;;;7.28;5.25;;;;;;;;;;5118107;27;20028;-71
2021/06/13 02:26:28;;;;;;;6.07;5.30;;;;;;;;;;5117147;27;20058;-71
2021/06/13 02:28:55;;;;;;;7.53;5.57;;;;;;;;;;5117668;27;20027;-72
2021/06/13 02:31:21;;;;;;;;;;;;;;;;;;5121727;27;20024;-72
2021/06/13 02:33:47;;;;;;;7.88;5.65;;;;;;;;;;5121267;27;19907;-72
2021/06/13 02:36:13;;;;;;;5.60;5.00;;;;;;;;;;5119300;27;20027;-72
2021/06/13 02:38:39;;;;;;;5.70;5.05;;;;;;;;;;5120901;27;20123;-71
2021/06/13 02:41:05;;;;;;;6.90;5.25;;;;;;;;;;5119083;27;20031;-71
2021/06/13 02:43:32;;;;;;;6.35;4.93;;;;;;;;;;5121868;27;20027;-71
2021/06/13 02:45:58;;;;;;;9.52;5.60;;;;;;;;;;5119906;27;20107;-72
2021/06/13 02:48:24;;;;;;;5.22;4.72;;;;;;;;;;5120545;27;20073;-72
2021/06/13 02:50:51;;;;;;;5.30;4.80;;;;;;;;;;5116879;27;20043;-72
2021/06/13 02:53:30;;;;;;;6.25;5.10;;;;;;;;;;5102511;27;20100;-72
2021/06/13 02:56:09;;;;;;;5.18;4.40;;;;;;;;;;5105499;27;20125;-72
2021/06/13 02:58:45;;;;;;;5.72;5.13;;;;;;;;;;5120173;27;20106;-72
2021/06/13 03:01:16;;;;;;;6.43;4.90;;;;;;;;;;5118638;27;20046;-71
2021/06/13 03:03:42;;;;;;;5.32;4.30;;;;;;;;;;5118260;27;20350;-72
2021/06/13 03:06:13;;;;;;;5.10;4.43;;;;;;;;;;5119177;27;20051;-71
2021/06/13 03:08:39;;;;;;;6.45;4.72;;;;;;;;;;5118974;27;20020;-72
2021/06/13 03:11:06;;;;;;;5.13;4.50;;;;;;;;;;5104033;27;20253;-72
2021/06/13 03:13:32;;;;;;;5.30;4.57;;;;;;;;;;5121123;27;20024;-71
2021/06/13 03:15:59;;;;;;;5.70;4.20;;;;;;;;;;5118678;27;20043;-71
2021/06/13 03:18:26;;;;;;;4.10;3.70;;;;;;;;;;5118155;27;20027;-71
2021/06/13 03:20:53;;;;;;;5.18;4.10;;;;;;;;;;5118176;27;20098;-71
2021/06/13 03:23:19;;;;;;;9.07;4.03;;;;;;;;;;5118257;27;20030;-71
2021/06/13 03:25:46;;;;;;;4.30;3.63;;;;;;;;;;5123607;27;20046;-72
2021/06/13 03:28:12;;;;;;;5.70;4.07;;;;;;;;;;5117171;27;20055;-71
2021/06/13 03:30:38;;;;;;;5.10;3.90;;;;;;;;;;5117117;27;20027;-72
2021/06/13 03:33:05;;;;;;;6.22;3.63;;;;;;;;;;5116415;27;20091;-72
2021/06/13 03:35:31;;;;;;;5.05;3.95;;;;;;;;;;5118293;27;20092;-72
2021/06/13 03:37:57;;;;;;;4.20;3.80;;;;;;;;;;5117232;27;20032;-71
2021/06/13 03:40:24;;;;;;;4.07;3.60;;;;;;;;;;5119749;27;20552;-72
2021/06/13 03:42:50;;;;;;;5.78;3.70;;;;;;;;;;5116657;27;20401;-71
2021/06/13 03:45:17;;;;;;;4.65;3.88;;;;;;;;;;5118096;27;20679;-70
2021/06/13 03:47:43;;;;;;;5.32;3.75;;;;;;;;;;5117177;27;20075;-70
2021/06/13 03:50:10;;;;;;;8.55;4.20;;;;;;;;;;5116219;27;20481;-71
2021/06/13 03:52:36;;;;;;;4.20;3.70;;;;;;;;;;5118844;27;20043;-71
2021/06/13 03:55:03;;;;;;;5.38;3.70;;;;;;;;;;5117361;27;20023;-71
2021/06/13 03:57:30;;;;;;;3.67;3.38;;;;;;;;;;5116260;27;20402;-72
2021/06/13 03:59:57;;;;;;;8.68;3.30;;;;;;;;;;5102328;27;20426;-71
2021/06/13 04:02:24;;;;;;;4.75;3.45;;;;;;;;;;5114474;27;20031;-72
2021/06/13 04:04:51;;;;;;;5.30;3.22;;;;;;;;;;5116416;27;20747;-72
2021/06/13 04:07:18;;;;;;;4.15;3.13;;;;;;;;;;5117619;27;20050;-71
2021/06/13 04:09:44;;;;;;;4.25;3.30;;;;;;;;;;5117247;27;20149;-70
2021/06/13 04:12:14;;;;;;;4.95;3.22;;;;;;;;;;5119454;27;20027;-71
2021/06/13 04:14:40;;;;;;;6.90;3.25;;;;;;;;;;5117474;27;20027;-71
2021/06/13 04:17:06;;;;;;;4.15;3.30;;;;;;;;;;5096895;27;20038;-70
2021/06/13 04:19:32;;;;;;;3.30;3.00;;;;;;;;;;5117263;27;20039;-72
2021/06/13 04:21:59;;;;;;;4.57;2.97;;;;;;;;;;5119469;27;20430;-71
2021/06/13 04:24:25;;;;;;;3.40;3.00;;;;;;;;;;5124997;27;20473;-71
2021/06/13 04:26:54;;;;;;;3.70;2.85;;;;;;;;;;5092613;28;20293;-71
2021/06/13 04:29:20;;;;;;;3.67;3.00;;;;;;;;;;5124629;27;20410;-71
2021/06/13 04:31:46;;;;;;;4.70;3.10;;;;;;;;;;5123053;27;20030;-71
2021/06/13 04:34:12;;;;;;;3.53;2.80;;;;;;;;;;5115498;27;20060;-71
2021/06/13 04:36:38;;;;;;;3.83;2.97;;;;;;;;;;5120172;28;20473;-71
2021/06/13 04:39:05;;;;;;;3.67;3.05;;;;;;;;;;5096741;28;20085;-70
2021/06/13 04:41:34;;;;;;;5.78;2.85;;;;;;;;;;5117231;28;20039;-71
2021/06/13 04:44:01;;;;;;;4.25;2.75;;;;;;;;;;5117969;28;20035;-71
2021/06/13 04:46:28;;;;;;;2.90;2.70;;;;;;;;;;5116802;28;20063;-71
2021/06/13 04:48:55;;;;;;;2.92;2.70;;;;;;;;;;5115369;28;20023;-70
2021/06/13 04:51:21;;;;;;;7.20;2.90;;;;;;;;;;5119203;27;20130;-70
2021/06/13 04:53:48;;;;;;;7.63;2.88;;;;;;;;;;5122857;27;20051;-71
2021/06/13 04:56:16;;;;;;;3.92;2.90;;;;;;;;;;5123156;27;20022;-71
2021/06/13 04:58:42;;;;;;;3.60;2.63;;;;;;;;;;5120645;27;20453;-71
2021/06/13 05:01:09;;;;;;;4.03;2.58;;;;;;;;;;5120115;27;20079;-71
2021/06/13 05:03:35;;;;;;;3.28;2.63;;;;;;;;;;5120712;27;20030;-71
2021/06/13 05:06:02;;;;;;;2.95;2.65;;;;;;;;;;5103999;27;20031;-71
2021/06/13 05:08:28;;;;;;;3.17;2.40;;;;;;;;;;5118117;27;20028;-71
2021/06/13 05:10:55;;;;;;;4.22;2.55;;;;;;;;;;5120100;27;20035;-71
2021/06/13 05:13:21;;;;;;;4.90;2.85;;;;;;;;;;5121944;27;20471;-71
2021/06/13 05:15:47;;;;;;;4.25;2.70;;;;;;;;;;5120655;27;20027;-71
2021/06/13 05:18:13;;;;;;;5.00;2.60;;;;;;;;;;5120588;27;20034;-71
2021/06/13 05:20:39;;;;;;;2.63;2.42;;;;;;;;;;5120155;27;20027;-71
2021/06/13 05:23:06;;;;;;;6.07;2.53;;;;;;;;;;5118939;27;20109;-70
2021/06/13 05:25:33;;;;;;;3.30;2.60;;;;;;;;;;5120041;27;20019;-71
2021/06/13 05:27:59;;;;;;;;;;;;;;;;;;5119969;27;20365;-71
2021/06/13 05:30:26;;;;;;;9.20;4.67;;;;;;;;;;5120537;27;20199;-71
2021/06/13 05:32:52;;;;;;;2.38;2.17;;;;;;;;;;5121158;27;20050;-71
2021/06/13 05:35:18;;;;;;;3.50;2.45;;;;;;;;;;5122713;27;20049;-71
2021/06/13 05:37:45;;;;;;;3.17;2.40;;;;;;;;;;5100375;27;20024;-71
2021/06/13 05:40:11;;;;;;;2.63;2.23;;;;;;;;;;5121545;27;20035;-71
2021/06/13 05:42:37;;;;;;;5.15;2.40;;;;;;;;;;5119355;27;20047;-71
2021/06/13 05:45:05;;;;;;;4.28;2.45;;;;;;;;;;5120955;27;20019;-71
2021/06/13 05:47:31;;;;;;;4.60;2.80;;;;;;;;;;5120169;27;20040;-71
2021/06/13 05:49:57;;;;;;;4.13;2.97;;;;;;;;;;5120976;27;20031;-71
2021/06/13 05:52:23;;;;;;;3.65;2.45;;;;;;;;;;5119236;27;20382;-71
2021/06/13 05:54:49;;;;;;;4.18;2.35;;;;;;;;;;5119317;27;20100;-71
2021/06/13 05:57:15;;;;;;;5.30;2.50;;;;;;;;;;5104898;27;20039;-71
2021/06/13 05:59:41;;;;;;;3.90;2.10;;;;;;;;;;5120330;27;20487;-71
2021/06/13 06:02:07;;;;;;;5.22;2.25;;;;;;;;;;5119231;27;20102;-71
2021/06/13 06:04:33;;;;;;;2.60;2.40;;;;;;;;;;5119379;27;20042;-72
2021/06/13 06:06:59;;;;;;;2.67;2.47;;;;;;;;;;5119372;27;20039;-71
2021/06/13 06:09:25;;;;;;;2.60;2.40;;;;;;;;;;5122799;27;20439;-72
2021/06/13 06:11:51;;;;;;;3.35;2.33;;;;;;;;;;5116354;27;20035;-72
2021/06/13 06:14:17;;;;;;;4.82;2.35;;;;;;;;;;5120896;27;20104;-74
2021/06/13 06:16:45;;;;;;;2.35;2.13;;;;;;;;;;5119701;27;20489;-72
2021/06/13 06:19:11;;;;;;;2.55;2.30;;;;;;;;;;5120187;27;20035;-72
2021/06/13 06:21:37;;;;;;;3.22;2.22;;;;;;;;;;5120881;27;20030;-72
2021/06/13 06:24:03;;;;;;;8.63;2.38;;;;;;;;;;5123092;27;20366;-72
2021/06/13 06:26:29;;;;;;;4.05;2.40;;;;;;;;;;5125930;27;20058;-72
2021/06/13 06:28:55;;;;;;;4.47;2.10;;;;;;;;;;5126553;27;20023;-72
2021/06/13 06:31:21;;;;;;;7.13;2.20;;;;;;;;;;5118854;27;20031;-72
2021/06/13 06:33:47;;;;;;;2.45;2.20;;;;;;;;;;5117192;27;20023;-71
2021/06/13 06:36:13;;;;;;;3.05;2.30;;;;;;;;;;5120118;27;20128;-72
2021/06/13 06:38:39;;;;;;;2.65;2.20;;;;;;;;;;5117810;27;20367;-70
2021/06/13 06:41:05;;;;;;;4.43;3.08;;;;;;;;;;5117832;27;20085;-71
2021/06/13 06:43:31;;;;;;;4.72;2.40;;;;;;;;;;5097883;27;20038;-71
2021/06/13 06:45:57;;;;;;;3.10;2.08;;;;;;;;;;5121437;27;20035;-73
2021/06/13 06:48:23;;;;;;;3.60;2.33;;;;;;;;;;5119817;27;20055;-72
2021/06/13 06:50:49;;;;;;;3.13;2.28;;;;;;;;;;5119929;27;20020;-71
2021/06/13 06:53:15;;;;;;;2.13;2.00;;;;;;;;;;5103231;27;20111;-71
2021/06/13 06:55:41;;;;;;;2.30;2.10;;;;;;;;;;5121898;27;20020;-74
2021/06/13 06:58:07;;;;;;;2.25;2.05;;;;;;;;;;5122949;27;20027;-71
2021/06/13 07:00:33;;;;;;;2.67;2.00;;;;;;;;;;5121845;27;20031;-71
2021/06/13 07:02:59;;;;;;;2.42;2.00;;;;;;;;;;5118719;27;20027;-71
2021/06/13 07:05:25;;;;;;;3.00;2.10;;;;;;;;;;5117617;27;20059;-71
2021/06/13 07:07:51;;;;;;;4.63;2.20;;;;;;;;;;5118360;27;20050;-71
2021/06/13 07:10:17;;;;;;;2.50;2.10;;;;;;;;;;5102980;27;20019;-71
2021/06/13 07:12:43;;;;;;;2.72;2.00;;;;;;;;;;5123328;27;20084;-72
2021/06/13 07:15:10;;;;;;;3.30;2.10;;;;;;;;;;5125967;27;20109;-70
2021/06/13 07:17:36;;;;;;;2.77;2.27;;;;;;;;;;5124927;27;20039;-71
2021/06/13 07:20:03;;;;;;;6.18;2.10;;;;;;;;;;5116736;27;20280;-71
2021/06/13 07:22:29;;;;;;;4.72;2.67;;;;;;;;;;5128277;27;20500;-71
2021/06/13 07:24:57;;;;;;;2.47;2.28;;;;;;;;;;5127740;27;20094;-72
2021/06/13 07:27:24;;;;;;;3.90;2.95;;;;;;;;;;5122018;27;20134;-71
2021/06/13 07:29:50;;;;;;;;;;;;;;;;;;5111810;27;20107;-71
2021/06/13 07:32:17;;;;;;;5.03;3.03;;;;;;;;;;5124138;27;20395;-71
2021/06/13 07:34:43;;;;;;;3.85;2.58;;;;;;;;;;5116883;27;20058;-71
2021/06/13 07:37:09;;;;;;;2.90;2.20;;;;;;;;;;5112193;27;20066;-71
2021/06/13 07:39:36;;;;;;;2.00;1.90;;;;;;;;;;5111161;27;20044;-72
2021/06/13 07:42:02;;;;;;;4.00;2.17;;;;;;;;;;5118208;27;20031;-71
2021/06/13 07:44:28;;;;;;;2.35;2.15;;;;;;;;;;5111450;27;20029;-72
2021/06/13 07:46:55;;;;;;;3.00;2.33;;;;;;;;;;5111085;28;20027;-71
2021/06/13 07:49:21;;;;;;;;;;;;;;;;;;5110186;27;20123;-72
2021/06/13 07:51:47;;;;;;;2.30;2.10;;;;;;;;;;5119761;27;19968;-72
2021/06/13 07:54:13;;;;;;;2.60;2.20;;;;;;;;;;5115193;27;20273;-72
2021/06/13 07:56:39;;;;;;;10.88;2.35;;;;;;;;;;5113272;27;20024;-71
2021/06/13 07:59:05;;;;;;;4.68;2.00;;;;;;;;;;5109688;27;20031;-72
2021/06/13 08:01:31;;;;;;;2.05;1.88;;;;;;;;;;5110718;27;20481;-72
2021/06/13 08:03:58;;;;;;;2.67;2.25;;;;;;;;;;5117162;27;20021;-73
2021/06/13 08:06:24;;;;;;;2.50;2.20;;;;;;;;;;5092548;28;20043;-70
2021/06/13 08:08:50;;;;;;;3.70;2.30;;;;;;;;;;5112349;27;20016;-71
2021/06/13 08:11:16;;;;;;;2.40;2.03;;;;;;;;;;5113862;27;20039;-70
2021/06/13 08:13:42;;;;;;;2.13;1.92;;;;;;;;;;5111152;27;20026;-70
2021/06/13 08:16:09;;;;;;;2.97;2.17;;;;;;;;;;5110131;28;20027;-71
2021/06/13 08:18:35;;;;;;;2.25;2.05;;;;;;;;;;5110992;28;20047;-71
2021/06/13 08:21:01;;;;;;;4.13;2.80;;;;;;;;;;5115632;27;20123;-71
2021/06/13 08:23:29;;;;;;;2.38;2.05;;;;;;;;;;5111010;28;20088;-71
2021/06/13 08:25:55;;;;;;;7.63;4.53;;;;;;;;;;5111789;27;20118;-74
2021/06/13 08:28:21;;;;;;;2.33;1.80;;;;;;;;;;5109859;28;20111;-73
2021/06/13 08:30:47;;;;;;;2.95;2.05;;;;;;;;;;5109885;27;20551;-73
2021/06/13 08:33:14;;;;;;;5.43;3.15;;;;;;;;;;5095593;28;20493;-75
2021/06/13 08:35:40;;;;;;;3.42;1.67;;;;;;;;;;5110415;28;20019;-72
2021/06/13 08:38:06;;;;;;;2.37;1.90;;;;;;;;;;5110660;28;20769;-72
2021/06/13 08:40:32;;;;;;;2.47;2.03;;;;;;;;;;5115122;28;20028;-70
2021/06/13 08:42:58;;;;;;;6.40;4.40;;;;;;;;;;5116286;28;20043;-72
2021/06/13 08:45:25;;;;;;;2.78;2.10;;;;;;;;;;5116995;28;20504;-71
2021/06/13 08:47:52;;;;;;;4.03;2.67;;;;;;;;;;5110286;28;20062;-71
2021/06/13 08:50:18;;;;;;;;;;;;;;;;;;5110982;28;20019;-71
2021/06/13 08:52:44;;;;;;;2.25;1.92;;;;;;;;;;5109274;28;19923;-70
2021/06/13 08:55:10;;;;;;;2.10;1.90;;;;;;;;;;5113177;28;20069;-71
2021/06/13 08:57:37;;;;;;;3.05;1.88;;;;;;;;;;5110218;28;20027;-72
2021/06/13 09:00:06;;;;;;;2.40;2.20;;;;;;;;;;5125635;28;20070;-72
2021/06/13 09:02:32;;;;;;;4.45;3.15;;;;;;;;;;5109431;28;20024;-71
2021/06/13 09:04:58;;;;;;;7.90;2.70;;;;;;;;;;5110296;28;20028;-72
2021/06/13 09:07:26;;;;;;;2.10;1.90;;;;;;;;;;5110012;28;20073;-71
2021/06/13 09:09:53;;;;;;;3.50;1.80;;;;;;;;;;5103706;28;20036;-72
2021/06/13 09:12:19;;;;;;;;;;;;;;;;;;5110924;28;20024;-71
2021/06/13 09:14:47;;;;;;;3.20;1.52;;;;;;;;;;5108890;27;20295;-70
2021/06/13 09:17:14;;;;;;;2.15;1.90;;;;;;;;;;5110130;28;20051;-71
2021/06/13 09:19:59;;;;;;;1.73;1.63;;;;;;;;;;5115596;28;20032;-71
2021/06/13 09:22:25;;;;;;;1.77;1.67;;;;;;;;;;5112673;28;20020;-71
2021/06/13 09:25:03;;;;;;;5.87;3.67;;;;;;;;;;5116251;28;20035;-72
2021/06/13 09:27:29;;;;;;;4.18;1.98;;;;;;;;;;5119263;28;20062;-72
2021/06/13 09:29:55;;;;;;;5.13;2.90;;;;;;;;;;5110090;28;20462;-71
2021/06/13 09:32:21;;;;;;;7.32;4.85;;;;;;;;;;5111812;28;20073;-71
2021/06/13 09:35:07;;;;;;;1.90;1.80;;;;;;;;;;5108348;28;20100;-70
2021/06/13 09:37:33;;;;;;;12.00;5.75;;;;;;;;;;5114748;27;20072;-70
2021/06/13 09:40:08;;;;;;;11.97;7.60;;;;;;;;;;5121280;27;20098;-70
2021/06/13 09:42:36;;;;;;;4.43;3.13;;;;;;;;;;5113667;27;20049;-69
2021/06/13 09:45:02;;;;;;;3.25;2.30;;;;;;;;;;5123151;27;20435;-71
2021/06/13 09:47:29;;;;;;;4.60;2.53;;;;;;;;;;5112934;27;20035;-71
2021/06/13 09:49:55;;;;;;;5.85;2.70;;;;;;;;;;5114366;27;20480;-71
2021/06/13 09:52:27;;;;;;;3.53;2.80;;;;;;;;;;5114465;27;20122;-71
2021/06/13 09:55:10;;;;;;;3.03;2.28;;;;;;;;;;5116730;27;20373;-71
2021/06/13 09:57:56;;;;;;;2.60;2.35;;;;;;;;;;5112756;27;20583;-71
2021/06/13 10:00:26;;;;;;;3.40;2.13;;;;;;;;;;5121364;27;20540;-71
2021/06/13 10:02:52;;;;;;;5.13;2.67;;;;;;;;;;5117398;27;20026;-71
2021/06/13 10:05:19;;;;;;;3.20;2.40;;;;;;;;;;5116958;27;20023;-71
2021/06/13 10:07:44;;;;;;;;;;;;;;;;;;5098365;28;20378;-73
2021/06/13 10:10:10;;;;;;;2.53;2.20;;;;;;;;;;5116768;27;19913;-72
2021/06/13 10:12:52;;;;;;;3.13;2.53;;;;;;;;;;5120142;27;20031;-70
2021/06/13 10:15:18;;;;;;;2.67;2.47;;;;;;;;;;5125164;27;20042;-71
2021/06/13 10:17:44;;;;;;;3.13;2.40;;;;;;;;;;5115738;27;20474;-72
2021/06/13 10:20:23;;;;;;;3.47;2.00;;;;;;;;;;5112724;27;20080;-70
2021/06/13 10:22:49;;;;;;;3.17;2.35;;;;;;;;;;5113515;27;20044;-70
2021/06/13 10:25:15;;;;;;;3.72;1.90;;;;;;;;;;5112992;27;20023;-71
2021/06/13 10:27:41;;;;;;;3.30;1.80;;;;;;;;;;5115883;27;20050;-70
2021/06/13 10:30:08;;;;;;;2.10;1.83;;;;;;;;;;5111714;27;20497;-71
2021/06/13 10:32:34;;;;;;;3.60;2.85;;;;;;;;;;5119279;27;20042;-72
2021/06/13 10:35:03;;;;;;;6.57;4.40;;;;;;;;;;5112341;27;20039;-73
2021/06/13 10:37:29;;;;;;;5.97;2.70;;;;;;;;;;5112000;27;20028;-71
2021/06/13 10:39:55;;;;;;;2.03;1.83;;;;;;;;;;5111535;27;20027;-71
2021/06/13 10:42:22;;;;;;;2.37;2.13;;;;;;;;;;5121333;27;20461;-71
2021/06/13 10:44:58;;;;;;;3.92;2.00;;;;;;;;;;5128362;27;20114;-70
2021/06/13 10:47:27;;;;;;;2.40;2.15;;;;;;;;;;5115388;27;20363;-72
2021/06/13 10:50:09;;;;;;;2.25;2.05;;;;;;;;;;5109810;28;20058;-69
2021/06/13 10:52:35;;;;;;;3.92;2.30;;;;;;;;;;5113905;27;20062;-71
2021/06/13 10:55:06;;;;;;;1.92;1.80;;;;;;;;;;5117242;27;20401;-71
2021/06/13 10:57:33;;;;;;;2.10;1.90;;;;;;;;;;5112334;27;20063;-69
2021/06/13 11:00:01;;;;;;;1.75;1.65;;;;;;;;;;5113988;27;20059;-72
2021/06/13 11:02:27;;;;;;;2.70;1.80;;;;;;;;;;5123033;27;20038;-70
2021/06/13 11:04:53;;;;;;;;;;;;;;;;;;5113212;27;20164;-69
2021/06/13 11:10:15;;;;;;;1.90;1.80;;;;;;;;;;5118461;27;20483;-70
2021/06/13 11:12:45;;;;;;;2.28;2.08;;;;;;;;;;5111460;27;20619;-71
2021/06/13 11:15:12;;;;;;;2.53;1.70;;;;;;;;;;5112135;27;20023;-71
2021/06/13 11:17:57;;;;;;;3.72;2.35;;;;;;;;;;5112052;27;20031;-71
2021/06/13 11:23:22;;;;;;;1.73;1.60;;;;;;;;;;5115463;27;20023;-71
2021/06/13 11:25:50;;;;;;;3.30;1.40;;;;;;;;;;5117407;27;20023;-70
2021/06/13 11:28:18;;;;;;;4.00;1.13;;;;;;;;;;5120595;27;20390;-71
2021/06/13 11:30:52;;;;;;;3.40;1.40;;;;;;;;;;5111612;27;20477;-71
2021/06/13 11:33:34;;;;;;;2.08;1.65;;;;;;;;;;5118714;27;20055;-72
2021/06/13 11:36:01;;;;;;;1.52;1.42;;;;;;;;;;5115011;27;20091;-71
2021/06/13 11:38:28;;;;;;;1.48;1.13;;;;;;;;;;5110859;27;20054;-72
2021/06/13 11:40:58;;;;;;;2.88;1.30;;;;;;;;;;5116585;27;20039;-71
2021/06/13 11:43:30;;;;;;;1.92;1.10;;;;;;;;;;5110897;27;20100;-71
2021/06/13 11:45:59;;;;;;;2.00;1.25;;;;;;;;;;5111262;27;20304;-70
2021/06/13 11:48:27;;;;;;;1.40;1.40;;;;;;;;;;5111183;28;20035;-71
2021/06/13 11:51:04;;;;;;;1.00;1.00;;;;;;;;;;5110993;27;20106;-69
2021/06/13 11:53:48;;;;;;;1.50;1.40;;;;;;;;;;5110557;27;20100;-73
2021/06/13 11:56:33;;;;;;;4.20;1.40;;;;;;;;;;5104607;27;20484;-70
2021/06/13 11:58:59;;;;;;;1.20;1.20;;;;;;;;;;5110592;27;20462;-73
2021/06/13 12:01:25;;;;;;;1.38;1.02;;;;;;;;;;5092204;28;20508;-73
2021/06/13 12:03:51;;;;;;;2.75;1.60;;;;;;;;;;5103843;27;20036;-76
2021/06/13 12:06:20;;;;;;;2.13;1.27;;;;;;;;;;5115870;27;20434;-74
2021/06/13 12:08:47;;;;;;;1.20;1.20;;;;;;;;;;5117068;27;20019;-76
2021/06/13 12:11:31;;;;;;;1.17;1.17;;;;;;;;;;5109842;28;20023;-75
2021/06/13 12:13:58;;;;;;;1.30;1.30;;;;;;;;;;5109953;27;20105;-75
2021/06/13 12:16:27;;;;;;;2.65;1.60;;;;;;;;;;5114087;27;20080;-74
2021/06/13 12:19:00;;;;;;;2.50;1.20;;;;;;;;;;5109671;27;20031;-75
2021/06/13 12:21:28;;;;;;;2.63;1.50;;;;;;;;;;5110693;27;20034;-78
2021/06/13 12:24:03;;;;;;;1.60;1.50;;;;;;;;;;5115593;27;20130;-77
2021/06/13 12:29:25;;;;;;;1.60;1.50;;;;;;;;;;5105886;28;20134;-77
2021/06/13 12:31:52;;;;;;;1.60;1.50;;;;;;;;;;5115442;27;20491;-79
2021/06/13 12:34:21;;;;;;;1.30;1.30;;;;;;;;;;5118027;27;20130;-78
2021/06/13 12:36:48;;;;;;;1.52;1.42;;;;;;;;;;5121899;28;20027;-77
2021/06/13 12:39:28;;;;;;;1.40;1.40;;;;;;;;;;5116660;28;20110;-77
2021/06/13 12:42:07;;;;;;;3.42;1.60;;;;;;;;;;5113057;28;20497;-77
2021/06/13 12:44:33;;;;;;;1.30;1.30;;;;;;;;;;5119462;27;20043;-78
2021/06/13 12:46:59;;;;;;;1.50;1.40;;;;;;;;;;5110055;28;20042;-76
2021/06/13 12:49:25;;;;;;;1.10;1.10;;;;;;;;;;5097022;28;20114;-79
2021/06/13 12:51:51;;;;;;;1.30;1.30;;;;;;;;;;5120625;28;20047;-78
2021/06/13 12:54:17;;;;;;;1.42;1.35;;;;;;;;;;5113492;28;20099;-76
2021/06/13 12:56:44;;;;;;;1.50;1.40;;;;;;;;;;5116322;28;20050;-77
2021/06/13 12:59:11;;;;;;;2.17;1.40;;;;;;;;;;5119746;28;20023;-77
2021/06/13 13:01:41;;;;;;;1.70;1.40;;;;;;;;;;5117201;28;20544;-77
2021/06/13 13:04:07;;;;;;;2.35;1.50;;;;;;;;;;5105804;28;20131;-78
2021/06/13 13:06:46;;;;;;;1.50;1.40;;;;;;;;;;5126339;28;20572;-77
2021/06/13 13:09:12;;;;;;;1.55;1.45;;;;;;;;;;5119412;28;20039;-78
2021/06/13 13:11:42;;;;;;;1.42;1.40;;;;;;;;;;5116763;28;20466;-79
2021/06/13 13:14:08;;;;;;;3.67;1.48;;;;;;;;;;5120979;27;20023;-77
2021/06/13 13:16:36;;;;;;;1.42;1.33;;;;;;;;;;5120891;27;20046;-78
2021/06/13 13:19:02;;;;;;;2.13;1.50;;;;;;;;;;5119613;27;20426;-78
2021/06/13 13:21:30;;;;;;;1.40;1.40;;;;;;;;;;5128027;27;20883;-78
2021/06/13 13:23:56;;;;;;;1.98;1.50;;;;;;;;;;5128597;27;20053;-78
2021/06/13 13:26:22;;;;;;;2.92;1.40;;;;;;;;;;5119261;27;20051;-78
2021/06/13 13:28:52;;;;;;;1.40;1.40;;;;;;;;;;5106171;27;20035;-77
2021/06/13 13:31:20;;;;;;;1.70;1.60;;;;;;;;;;5116156;27;20024;-77
2021/06/13 13:33:52;;;;;;;1.77;1.63;;;;;;;;;;5131735;27;20431;-77
2021/06/13 13:36:33;;;;;;;1.48;1.40;;;;;;;;;;5123795;27;20027;-77
2021/06/13 13:38:59;;;;;;;1.95;1.52;;;;;;;;;;5125285;27;20148;-75
2021/06/13 13:41:39;;;;;;;3.30;1.60;;;;;;;;;;5120439;27;20030;-76
2021/06/13 13:44:10;;;;;;;1.67;1.58;;;;;;;;;;5120162;27;20035;-79
2021/06/13 13:46:37;;;;;;;1.40;1.40;;;;;;;;;;5125710;27;20035;-77
2021/06/13 13:49:04;;;;;;;1.60;1.60;;;;;;;;;;5121407;27;20746;-77
2021/06/13 13:51:41;;;;;;;1.70;1.60;;;;;;;;;;5119888;27;20085;-78
2021/06/13 13:54:07;;;;;;;1.55;1.50;;;;;;;;;;5122611;27;20401;-78
2021/06/13 13:56:33;;;;;;;3.20;1.42;;;;;;;;;;5119524;27;20028;-79
2021/06/13 13:58:59;;;;;;;1.65;1.55;;;;;;;;;;5115937;27;20027;-78
2021/06/13 14:01:25;;;;;;;5.18;1.52;;;;;;;;;;5116159;27;20432;-78
2021/06/13 14:03:52;;;;;;;1.60;1.50;;;;;;;;;;5120469;27;20055;-77
2021/06/13 14:06:18;;;;;;;2.08;1.70;;;;;;;;;;5121407;27;20027;-76
2021/06/13 14:08:45;;;;;;;1.80;1.70;;;;;;;;;;5122231;27;20038;-79
2021/06/13 14:11:12;;;;;;;1.60;1.50;;;;;;;;;;5112755;28;20111;-78
2021/06/13 14:13:39;;;;;;;1.55;1.50;;;;;;;;;;5117080;27;20019;-78
2021/06/13 14:16:05;;;;;;;3.30;2.20;;;;;;;;;;5117311;27;20038;-77
2021/06/13 14:18:31;;;;;;;2.05;1.70;;;;;;;;;;5124505;27;20103;-76
2021/06/13 14:20:58;;;;;;;1.80;1.70;;;;;;;;;;5123831;27;20034;-78
2021/06/13 14:23:24;;;;;;;1.88;1.65;;;;;;;;;;5113518;27;20119;-80
2021/06/13 14:25:50;;;;;;;1.80;1.70;;;;;;;;;;5119361;27;20032;-80
2021/06/13 14:28:17;;;;;;;1.70;1.60;;;;;;;;;;5112631;27;20026;-79
2021/06/13 14:30:48;;;;;;;1.80;1.60;;;;;;;;;;5114701;27;20042;-79
2021/06/13 14:33:14;;;;;;;1.70;1.60;;;;;;;;;;5112109;27;20051;-78
2021/06/13 14:35:41;;;;;;;1.70;1.60;;;;;;;;;;5113543;27;20032;-77
2021/06/13 14:38:07;;;;;;;2.58;1.80;;;;;;;;;;5120790;27;20054;-78
2021/06/13 14:40:33;;;;;;;2.80;1.60;;;;;;;;;;5111633;27;20031;-80
2021/06/13 14:42:59;;;;;;;3.70;1.98;;;;;;;;;;5121224;27;20032;-79
2021/06/13 14:45:25;;;;;;;4.00;2.55;;;;;;;;;;5127266;27;20063;-79
2021/06/13 14:47:51;;;;;;;2.97;1.70;;;;;;;;;;5113641;27;20066;-80
2021/06/13 14:50:17;;;;;;;3.53;1.60;;;;;;;;;;5120050;27;20039;-79
2021/06/13 14:52:44;;;;;;;2.22;1.90;;;;;;;;;;5117662;27;20147;-80
2021/06/13 14:55:11;;;;;;;1.70;1.60;;;;;;;;;;5111998;27;20415;-75
2021/06/13 14:57:38;;;;;;;2.53;1.70;;;;;;;;;;5126889;27;20118;-78